sensor_id;sensor_type;location;lat;lon;timestamp;P1;durP1;ratioP1;P2;durP2;ratioP2
67065;SDS011;53978;43.846;25.952;2022-10-16T00:01:19;10.77;;;5.85;;
67065;SDS011;53978;43.846;25.952;2022-10-16T00:03:47;8.07;;;6.10;;
67065;SDS011;53978;43.846;25.952;2022-10-16T00:06:13;8.82;;;5.80;;
67065;SDS011;53978;43.846;25.952;2022-10-16T00:08:40;13.13;;;6.03;;
67065;SDS011;53978;43.846;25.952;2022-10-16T00:11:06;10.75;;;6.22;;
67065;SDS011;53978;43.846;25.952;2022-10-16T00:13:34;10.90;;;5.72;;
67065;SDS011;53978;43.846;25.952;2022-10-16T00:16:00;9.00;;;6.40;;
67065;SDS011;53978;43.846;25.952;2022-10-16T00:18:26;9.30;;;6.28;;
67065;SDS011;53978;43.846;25.952;2022-10-16T00:20:53;7.60;;;6.00;;
67065;SDS011;53978;43.846;25.952;2022-10-16T00:23:19;7.85;;;5.93;;
67065;SDS011;53978;43.846;25.952;2022-10-16T00:25:56;9.50;;;6.63;;
67065;SDS011;53978;43.846;25.952;2022-10-16T00:28:22;9.02;;;6.03;;
67065;SDS011;53978;43.846;25.952;2022-10-16T00:30:48;10.75;;;6.10;;
67065;SDS011;53978;43.846;25.952;2022-10-16T00:33:13;10.45;;;6.13;;
67065;SDS011;53978;43.846;25.952;2022-10-16T00:35:39;9.98;;;5.35;;
67065;SDS011;53978;43.846;25.952;2022-10-16T00:38:04;7.38;;;4.78;;
67065;SDS011;53978;43.846;25.952;2022-10-16T00:40:29;6.35;;;4.28;;
67065;SDS011;53978;43.846;25.952;2022-10-16T00:42:56;8.25;;;4.80;;
67065;SDS011;53978;43.846;25.952;2022-10-16T00:45:22;8.23;;;4.88;;
67065;SDS011;53978;43.846;25.952;2022-10-16T00:47:47;7.43;;;4.88;;
67065;SDS011;53978;43.846;25.952;2022-10-16T00:50:26;7.03;;;4.53;;
67065;SDS011;53978;43.846;25.952;2022-10-16T00:52:54;6.10;;;4.22;;
67065;SDS011;53978;43.846;25.952;2022-10-16T00:55:20;6.45;;;4.32;;
67065;SDS011;53978;43.846;25.952;2022-10-16T00:57:46;5.85;;;4.18;;
67065;SDS011;53978;43.846;25.952;2022-10-16T01:00:13;6.35;;;4.35;;
67065;SDS011;53978;43.846;25.952;2022-10-16T01:02:41;8.57;;;4.82;;
67065;SDS011;53978;43.846;25.952;2022-10-16T01:05:06;8.75;;;4.78;;
67065;SDS011;53978;43.846;25.952;2022-10-16T01:12:50;8.38;;;4.75;;
67065;SDS011;53978;43.846;25.952;2022-10-16T01:15:27;8.73;;;4.85;;
67065;SDS011;53978;43.846;25.952;2022-10-16T01:20:49;7.32;;;4.55;;
67065;SDS011;53978;43.846;25.952;2022-10-16T01:32:10;7.20;;;4.88;;
67065;SDS011;53978;43.846;25.952;2022-10-16T01:34:43;9.18;;;4.95;;
67065;SDS011;53978;43.846;25.952;2022-10-16T01:37:14;8.43;;;4.72;;
67065;SDS011;53978;43.846;25.952;2022-10-16T01:39:42;6.82;;;4.75;;
67065;SDS011;53978;43.846;25.952;2022-10-16T01:42:15;6.43;;;4.35;;
67065;SDS011;53978;43.846;25.952;2022-10-16T01:44:43;6.75;;;5.10;;
67065;SDS011;53978;43.846;25.952;2022-10-16T01:47:10;8.20;;;4.72;;
67065;SDS011;53978;43.846;25.952;2022-10-16T01:49:38;5.95;;;4.55;;
67065;SDS011;53978;43.846;25.952;2022-10-16T01:52:05;7.18;;;4.30;;
67065;SDS011;53978;43.846;25.952;2022-10-16T01:54:33;12.85;;;4.60;;
67065;SDS011;53978;43.846;25.952;2022-10-16T01:57:00;9.05;;;4.22;;
67065;SDS011;53978;43.846;25.952;2022-10-16T01:59:26;9.80;;;4.55;;
67065;SDS011;53978;43.846;25.952;2022-10-16T02:01:58;6.85;;;4.53;;
67065;SDS011;53978;43.846;25.952;2022-10-16T02:04:29;8.00;;;4.20;;
67065;SDS011;53978;43.846;25.952;2022-10-16T02:06:57;9.63;;;5.55;;
67065;SDS011;53978;43.846;25.952;2022-10-16T02:09:23;7.38;;;4.90;;
67065;SDS011;53978;43.846;25.952;2022-10-16T02:11:48;10.18;;;5.05;;
67065;SDS011;53978;43.846;25.952;2022-10-16T02:14:15;11.40;;;5.22;;
67065;SDS011;53978;43.846;25.952;2022-10-16T02:16:42;7.45;;;4.85;;
67065;SDS011;53978;43.846;25.952;2022-10-16T02:19:09;7.10;;;4.78;;
67065;SDS011;53978;43.846;25.952;2022-10-16T02:21:39;6.80;;;4.75;;
67065;SDS011;53978;43.846;25.952;2022-10-16T02:27:11;6.57;;;4.50;;
67065;SDS011;53978;43.846;25.952;2022-10-16T02:29:41;6.03;;;4.75;;
67065;SDS011;53978;43.846;25.952;2022-10-16T02:32:15;8.32;;;5.05;;
67065;SDS011;53978;43.846;25.952;2022-10-16T02:34:42;8.00;;;4.95;;
67065;SDS011;53978;43.846;25.952;2022-10-16T02:37:08;10.43;;;5.03;;
67065;SDS011;53978;43.846;25.952;2022-10-16T02:39:35;9.18;;;5.20;;
67065;SDS011;53978;43.846;25.952;2022-10-16T02:42:01;8.18;;;4.97;;
67065;SDS011;53978;43.846;25.952;2022-10-16T02:44:26;7.35;;;4.85;;
67065;SDS011;53978;43.846;25.952;2022-10-16T02:46:54;7.30;;;5.05;;
67065;SDS011;53978;43.846;25.952;2022-10-16T02:49:20;9.50;;;4.90;;
67065;SDS011;53978;43.846;25.952;2022-10-16T02:51:45;11.23;;;4.57;;
67065;SDS011;53978;43.846;25.952;2022-10-16T02:54:11;6.53;;;4.55;;
67065;SDS011;53978;43.846;25.952;2022-10-16T02:56:36;7.35;;;5.00;;
67065;SDS011;53978;43.846;25.952;2022-10-16T02:59:01;7.68;;;5.13;;
67065;SDS011;53978;43.846;25.952;2022-10-16T03:01:27;6.93;;;5.00;;
67065;SDS011;53978;43.846;25.952;2022-10-16T03:03:53;7.03;;;4.97;;
67065;SDS011;53978;43.846;25.952;2022-10-16T03:06:18;8.93;;;5.00;;
67065;SDS011;53978;43.846;25.952;2022-10-16T03:08:43;7.60;;;4.65;;
67065;SDS011;53978;43.846;25.952;2022-10-16T03:11:09;5.30;;;4.32;;
67065;SDS011;53978;43.846;25.952;2022-10-16T03:13:34;6.38;;;4.40;;
67065;SDS011;53978;43.846;25.952;2022-10-16T03:16:00;6.05;;;4.32;;
67065;SDS011;53978;43.846;25.952;2022-10-16T03:18:25;7.20;;;4.10;;
67065;SDS011;53978;43.846;25.952;2022-10-16T03:20:50;14.00;;;4.70;;
67065;SDS011;53978;43.846;25.952;2022-10-16T03:23:16;10.93;;;5.53;;
67065;SDS011;53978;43.846;25.952;2022-10-16T03:25:41;6.30;;;4.65;;
67065;SDS011;53978;43.846;25.952;2022-10-16T03:28:06;6.78;;;4.50;;
67065;SDS011;53978;43.846;25.952;2022-10-16T03:30:32;8.60;;;4.32;;
67065;SDS011;53978;43.846;25.952;2022-10-16T03:32:57;6.32;;;4.65;;
67065;SDS011;53978;43.846;25.952;2022-10-16T03:35:23;9.10;;;5.18;;
67065;SDS011;53978;43.846;25.952;2022-10-16T03:37:49;6.95;;;4.72;;
67065;SDS011;53978;43.846;25.952;2022-10-16T03:40:15;7.80;;;4.78;;
67065;SDS011;53978;43.846;25.952;2022-10-16T03:42:41;7.10;;;4.53;;
67065;SDS011;53978;43.846;25.952;2022-10-16T03:45:07;6.78;;;4.88;;
67065;SDS011;53978;43.846;25.952;2022-10-16T03:47:33;5.53;;;4.57;;
67065;SDS011;53978;43.846;25.952;2022-10-16T03:49:59;6.95;;;5.13;;
67065;SDS011;53978;43.846;25.952;2022-10-16T03:52:24;7.30;;;5.05;;
67065;SDS011;53978;43.846;25.952;2022-10-16T03:54:50;8.93;;;5.25;;
67065;SDS011;53978;43.846;25.952;2022-10-16T03:57:15;8.70;;;4.72;;
67065;SDS011;53978;43.846;25.952;2022-10-16T03:59:41;6.40;;;4.68;;
67065;SDS011;53978;43.846;25.952;2022-10-16T04:02:06;7.63;;;5.25;;
67065;SDS011;53978;43.846;25.952;2022-10-16T04:04:32;6.57;;;4.70;;
67065;SDS011;53978;43.846;25.952;2022-10-16T04:06:57;12.05;;;4.60;;
67065;SDS011;53978;43.846;25.952;2022-10-16T04:09:22;7.95;;;4.40;;
67065;SDS011;53978;43.846;25.952;2022-10-16T04:11:48;8.57;;;4.63;;
67065;SDS011;53978;43.846;25.952;2022-10-16T04:14:13;7.00;;;4.70;;
67065;SDS011;53978;43.846;25.952;2022-10-16T04:16:39;7.45;;;5.07;;
67065;SDS011;53978;43.846;25.952;2022-10-16T04:19:04;8.77;;;4.97;;
67065;SDS011;53978;43.846;25.952;2022-10-16T04:21:30;7.22;;;4.93;;
67065;SDS011;53978;43.846;25.952;2022-10-16T04:23:55;6.60;;;4.57;;
67065;SDS011;53978;43.846;25.952;2022-10-16T04:26:20;10.15;;;4.55;;
67065;SDS011;53978;43.846;25.952;2022-10-16T04:28:46;10.07;;;4.53;;
67065;SDS011;53978;43.846;25.952;2022-10-16T04:31:11;6.30;;;4.47;;
67065;SDS011;53978;43.846;25.952;2022-10-16T04:33:36;7.30;;;4.55;;
67065;SDS011;53978;43.846;25.952;2022-10-16T04:36:02;7.88;;;4.72;;
67065;SDS011;53978;43.846;25.952;2022-10-16T04:38:28;7.90;;;4.60;;
67065;SDS011;53978;43.846;25.952;2022-10-16T04:40:54;8.65;;;4.55;;
67065;SDS011;53978;43.846;25.952;2022-10-16T04:43:19;6.32;;;4.05;;
67065;SDS011;53978;43.846;25.952;2022-10-16T04:45:45;8.05;;;4.80;;
67065;SDS011;53978;43.846;25.952;2022-10-16T04:48:11;11.20;;;4.88;;
67065;SDS011;53978;43.846;25.952;2022-10-16T04:50:36;10.40;;;4.70;;
67065;SDS011;53978;43.846;25.952;2022-10-16T04:53:02;6.50;;;4.40;;
67065;SDS011;53978;43.846;25.952;2022-10-16T04:55:27;7.57;;;4.65;;
67065;SDS011;53978;43.846;25.952;2022-10-16T04:57:52;7.97;;;5.10;;
67065;SDS011;53978;43.846;25.952;2022-10-16T05:00:18;8.82;;;4.70;;
67065;SDS011;53978;43.846;25.952;2022-10-16T05:02:43;6.18;;;4.20;;
67065;SDS011;53978;43.846;25.952;2022-10-16T05:05:09;7.57;;;5.00;;
67065;SDS011;53978;43.846;25.952;2022-10-16T05:07:34;8.45;;;5.38;;
67065;SDS011;53978;43.846;25.952;2022-10-16T05:09:59;9.52;;;4.97;;
67065;SDS011;53978;43.846;25.952;2022-10-16T05:12:25;6.85;;;4.45;;
67065;SDS011;53978;43.846;25.952;2022-10-16T05:14:50;14.52;;;4.65;;
67065;SDS011;53978;43.846;25.952;2022-10-16T05:17:16;7.53;;;4.88;;
67065;SDS011;53978;43.846;25.952;2022-10-16T05:19:41;8.90;;;4.70;;
67065;SDS011;53978;43.846;25.952;2022-10-16T05:22:06;7.13;;;5.00;;
67065;SDS011;53978;43.846;25.952;2022-10-16T05:24:32;10.00;;;5.57;;
67065;SDS011;53978;43.846;25.952;2022-10-16T05:26:58;8.55;;;5.82;;
67065;SDS011;53978;43.846;25.952;2022-10-16T05:29:23;11.80;;;6.07;;
67065;SDS011;53978;43.846;25.952;2022-10-16T05:31:52;11.10;;;6.70;;
67065;SDS011;53978;43.846;25.952;2022-10-16T05:34:18;10.27;;;6.88;;
67065;SDS011;53978;43.846;25.952;2022-10-16T05:36:44;13.32;;;6.15;;
67065;SDS011;53978;43.846;25.952;2022-10-16T05:39:10;11.57;;;6.43;;
67065;SDS011;53978;43.846;25.952;2022-10-16T05:41:35;13.45;;;6.47;;
67065;SDS011;53978;43.846;25.952;2022-10-16T05:44:03;11.02;;;6.35;;
67065;SDS011;53978;43.846;25.952;2022-10-16T05:46:29;11.48;;;6.63;;
67065;SDS011;53978;43.846;25.952;2022-10-16T05:48:55;14.07;;;6.65;;
67065;SDS011;53978;43.846;25.952;2022-10-16T05:51:20;12.68;;;6.22;;
67065;SDS011;53978;43.846;25.952;2022-10-16T05:53:45;10.02;;;5.93;;
67065;SDS011;53978;43.846;25.952;2022-10-16T05:56:11;9.05;;;5.40;;
67065;SDS011;53978;43.846;25.952;2022-10-16T05:58:39;12.07;;;5.88;;
67065;SDS011;53978;43.846;25.952;2022-10-16T06:01:13;9.25;;;5.03;;
67065;SDS011;53978;43.846;25.952;2022-10-16T06:03:40;7.72;;;5.28;;
67065;SDS011;53978;43.846;25.952;2022-10-16T06:06:15;9.85;;;5.57;;
67065;SDS011;53978;43.846;25.952;2022-10-16T06:08:42;9.35;;;5.43;;
67065;SDS011;53978;43.846;25.952;2022-10-16T06:11:09;9.52;;;5.75;;
67065;SDS011;53978;43.846;25.952;2022-10-16T06:13:36;7.57;;;5.22;;
67065;SDS011;53978;43.846;25.952;2022-10-16T06:16:02;8.20;;;5.82;;
67065;SDS011;53978;43.846;25.952;2022-10-16T06:18:29;8.15;;;5.10;;
67065;SDS011;53978;43.846;25.952;2022-10-16T06:20:55;7.60;;;5.45;;
67065;SDS011;53978;43.846;25.952;2022-10-16T06:23:21;8.30;;;5.30;;
67065;SDS011;53978;43.846;25.952;2022-10-16T06:25:49;11.73;;;5.60;;
67065;SDS011;53978;43.846;25.952;2022-10-16T06:28:15;8.65;;;5.25;;
67065;SDS011;53978;43.846;25.952;2022-10-16T06:30:40;11.43;;;5.22;;
67065;SDS011;53978;43.846;25.952;2022-10-16T06:33:08;8.68;;;5.78;;
67065;SDS011;53978;43.846;25.952;2022-10-16T06:35:34;11.35;;;5.13;;
67065;SDS011;53978;43.846;25.952;2022-10-16T06:38:00;8.77;;;4.90;;
67065;SDS011;53978;43.846;25.952;2022-10-16T06:40:25;8.52;;;5.88;;
67065;SDS011;53978;43.846;25.952;2022-10-16T06:42:50;8.50;;;5.30;;
67065;SDS011;53978;43.846;25.952;2022-10-16T06:45:17;7.68;;;5.78;;
67065;SDS011;53978;43.846;25.952;2022-10-16T06:47:42;10.23;;;5.38;;
67065;SDS011;53978;43.846;25.952;2022-10-16T06:50:07;13.20;;;5.65;;
67065;SDS011;53978;43.846;25.952;2022-10-16T06:52:33;8.85;;;5.78;;
67065;SDS011;53978;43.846;25.952;2022-10-16T06:54:59;8.80;;;5.75;;
67065;SDS011;53978;43.846;25.952;2022-10-16T06:57:25;9.85;;;6.13;;
67065;SDS011;53978;43.846;25.952;2022-10-16T06:59:50;9.13;;;5.63;;
67065;SDS011;53978;43.846;25.952;2022-10-16T07:02:16;9.10;;;6.15;;
67065;SDS011;53978;43.846;25.952;2022-10-16T07:04:44;10.93;;;6.05;;
67065;SDS011;53978;43.846;25.952;2022-10-16T07:07:09;11.48;;;6.03;;
67065;SDS011;53978;43.846;25.952;2022-10-16T07:09:34;8.18;;;5.90;;
67065;SDS011;53978;43.846;25.952;2022-10-16T07:12:00;9.98;;;5.80;;
67065;SDS011;53978;43.846;25.952;2022-10-16T07:14:25;10.40;;;5.90;;
67065;SDS011;53978;43.846;25.952;2022-10-16T07:16:55;10.27;;;6.07;;
67065;SDS011;53978;43.846;25.952;2022-10-16T07:19:21;9.85;;;6.53;;
67065;SDS011;53978;43.846;25.952;2022-10-16T07:21:46;12.57;;;6.88;;
67065;SDS011;53978;43.846;25.952;2022-10-16T07:24:13;11.27;;;6.68;;
67065;SDS011;53978;43.846;25.952;2022-10-16T07:26:40;10.30;;;6.75;;
67065;SDS011;53978;43.846;25.952;2022-10-16T07:29:11;13.35;;;7.30;;
67065;SDS011;53978;43.846;25.952;2022-10-16T07:31:40;18.08;;;7.30;;
67065;SDS011;53978;43.846;25.952;2022-10-16T07:34:06;14.85;;;7.28;;
67065;SDS011;53978;43.846;25.952;2022-10-16T07:36:32;11.18;;;6.68;;
67065;SDS011;53978;43.846;25.952;2022-10-16T07:38:57;9.52;;;6.78;;
67065;SDS011;53978;43.846;25.952;2022-10-16T07:41:22;8.82;;;6.07;;
67065;SDS011;53978;43.846;25.952;2022-10-16T07:43:49;16.88;;;7.05;;
67065;SDS011;53978;43.846;25.952;2022-10-16T07:46:16;10.32;;;6.53;;
67065;SDS011;53978;43.846;25.952;2022-10-16T07:48:42;9.30;;;6.03;;
67065;SDS011;53978;43.846;25.952;2022-10-16T07:51:10;12.40;;;7.03;;
67065;SDS011;53978;43.846;25.952;2022-10-16T07:53:36;9.25;;;6.50;;
67065;SDS011;53978;43.846;25.952;2022-10-16T07:56:03;9.10;;;5.93;;
67065;SDS011;53978;43.846;25.952;2022-10-16T07:58:30;11.50;;;6.22;;
67065;SDS011;53978;43.846;25.952;2022-10-16T08:00:56;12.25;;;6.38;;
67065;SDS011;53978;43.846;25.952;2022-10-16T08:03:22;10.45;;;6.75;;
67065;SDS011;53978;43.846;25.952;2022-10-16T08:05:48;10.98;;;6.70;;
67065;SDS011;53978;43.846;25.952;2022-10-16T08:08:14;11.07;;;6.90;;
67065;SDS011;53978;43.846;25.952;2022-10-16T08:10:40;9.35;;;6.07;;
67065;SDS011;53978;43.846;25.952;2022-10-16T08:13:05;13.30;;;6.35;;
67065;SDS011;53978;43.846;25.952;2022-10-16T08:15:31;8.40;;;6.40;;
67065;SDS011;53978;43.846;25.952;2022-10-16T08:18:03;10.93;;;6.60;;
67065;SDS011;53978;43.846;25.952;2022-10-16T08:20:30;9.15;;;6.50;;
67065;SDS011;53978;43.846;25.952;2022-10-16T08:22:56;10.93;;;6.20;;
67065;SDS011;53978;43.846;25.952;2022-10-16T08:25:23;9.27;;;5.80;;
67065;SDS011;53978;43.846;25.952;2022-10-16T08:27:49;8.77;;;4.93;;
67065;SDS011;53978;43.846;25.952;2022-10-16T08:30:14;9.52;;;4.78;;
67065;SDS011;53978;43.846;25.952;2022-10-16T08:32:41;7.93;;;5.47;;
67065;SDS011;53978;43.846;25.952;2022-10-16T08:35:07;6.80;;;4.70;;
67065;SDS011;53978;43.846;25.952;2022-10-16T08:37:34;6.93;;;3.90;;
67065;SDS011;53978;43.846;25.952;2022-10-16T08:40:00;5.53;;;4.18;;
67065;SDS011;53978;43.846;25.952;2022-10-16T08:45:19;6.70;;;4.63;;
67065;SDS011;53978;43.846;25.952;2022-10-16T08:50:35;11.07;;;5.00;;
67065;SDS011;53978;43.846;25.952;2022-10-16T08:53:01;6.60;;;4.47;;
67065;SDS011;53978;43.846;25.952;2022-10-16T08:57:58;11.93;;;5.53;;
67065;SDS011;53978;43.846;25.952;2022-10-16T09:00:24;6.65;;;4.60;;
67065;SDS011;53978;43.846;25.952;2022-10-16T09:07:59;9.40;;;5.68;;
67065;SDS011;53978;43.846;25.952;2022-10-16T09:16:09;8.38;;;4.85;;
67065;SDS011;53978;43.846;25.952;2022-10-16T09:18:40;9.85;;;4.82;;
67065;SDS011;53978;43.846;25.952;2022-10-16T09:21:19;10.50;;;5.32;;
67065;SDS011;53978;43.846;25.952;2022-10-16T09:23:48;6.90;;;4.80;;
67065;SDS011;53978;43.846;25.952;2022-10-16T09:26:14;11.30;;;5.30;;
67065;SDS011;53978;43.846;25.952;2022-10-16T09:28:41;8.77;;;5.30;;
67065;SDS011;53978;43.846;25.952;2022-10-16T09:31:10;6.97;;;5.03;;
67065;SDS011;53978;43.846;25.952;2022-10-16T09:33:39;7.60;;;5.63;;
67065;SDS011;53978;43.846;25.952;2022-10-16T09:36:06;7.50;;;4.75;;
67065;SDS011;53978;43.846;25.952;2022-10-16T09:38:35;7.88;;;4.95;;
67065;SDS011;53978;43.846;25.952;2022-10-16T09:41:02;6.63;;;4.40;;
67065;SDS011;53978;43.846;25.952;2022-10-16T09:51:29;8.43;;;4.50;;
67065;SDS011;53978;43.846;25.952;2022-10-16T09:56:26;8.98;;;4.60;;
67065;SDS011;53978;43.846;25.952;2022-10-16T09:58:56;8.18;;;4.63;;
67065;SDS011;53978;43.846;25.952;2022-10-16T10:01:25;11.30;;;4.60;;
67065;SDS011;53978;43.846;25.952;2022-10-16T10:03:57;15.35;;;5.97;;
67065;SDS011;53978;43.846;25.952;2022-10-16T10:06:31;7.55;;;5.03;;
67065;SDS011;53978;43.846;25.952;2022-10-16T10:09:20;7.95;;;4.47;;
67065;SDS011;53978;43.846;25.952;2022-10-16T10:11:51;11.00;;;4.82;;
67065;SDS011;53978;43.846;25.952;2022-10-16T10:22:23;7.47;;;4.90;;
67065;SDS011;53978;43.846;25.952;2022-10-16T10:25:19;11.13;;;5.65;;
67065;SDS011;53978;43.846;25.952;2022-10-16T10:43:56;6.55;;;5.03;;
67065;SDS011;53978;43.846;25.952;2022-10-16T10:46:50;8.18;;;5.43;;
67065;SDS011;53978;43.846;25.952;2022-10-16T11:01:01;8.65;;;5.80;;
67065;SDS011;53978;43.846;25.952;2022-10-16T11:03:46;9.57;;;5.90;;
67065;SDS011;53978;43.846;25.952;2022-10-16T11:06:39;6.88;;;4.88;;
67065;SDS011;53978;43.846;25.952;2022-10-16T11:09:12;5.75;;;4.25;;
67065;SDS011;53978;43.846;25.952;2022-10-16T11:14:17;7.35;;;4.07;;
67065;SDS011;53978;43.846;25.952;2022-10-16T11:19:31;6.88;;;4.57;;
67065;SDS011;53978;43.846;25.952;2022-10-16T11:24:47;5.33;;;3.93;;
67065;SDS011;53978;43.846;25.952;2022-10-16T11:27:17;6.63;;;4.40;;
67065;SDS011;53978;43.846;25.952;2022-10-16T11:29:50;4.55;;;2.70;;
67065;SDS011;53978;43.846;25.952;2022-10-16T11:32:23;4.50;;;3.25;;
67065;SDS011;53978;43.846;25.952;2022-10-16T11:34:59;14.00;;;4.10;;
67065;SDS011;53978;43.846;25.952;2022-10-16T11:37:42;7.50;;;4.07;;
67065;SDS011;53978;43.846;25.952;2022-10-16T11:40:31;7.95;;;4.15;;
67065;SDS011;53978;43.846;25.952;2022-10-16T11:43:22;8.10;;;4.40;;
67065;SDS011;53978;43.846;25.952;2022-10-16T11:45:49;7.03;;;4.28;;
67065;SDS011;53978;43.846;25.952;2022-10-16T11:48:20;6.72;;;4.47;;
67065;SDS011;53978;43.846;25.952;2022-10-16T11:50:54;7.82;;;4.15;;
67065;SDS011;53978;43.846;25.952;2022-10-16T11:56:11;6.53;;;4.47;;
67065;SDS011;53978;43.846;25.952;2022-10-16T12:06:43;8.85;;;5.18;;
67065;SDS011;53978;43.846;25.952;2022-10-16T12:09:20;10.07;;;4.82;;
67065;SDS011;53978;43.846;25.952;2022-10-16T12:11:50;10.43;;;5.35;;
67065;SDS011;53978;43.846;25.952;2022-10-16T12:16:54;7.82;;;5.32;;
67065;SDS011;53978;43.846;25.952;2022-10-16T12:19:21;6.72;;;4.80;;
67065;SDS011;53978;43.846;25.952;2022-10-16T12:21:47;7.35;;;5.30;;
67065;SDS011;53978;43.846;25.952;2022-10-16T12:24:33;8.60;;;5.88;;
67065;SDS011;53978;43.846;25.952;2022-10-16T12:27:04;8.25;;;5.93;;
67065;SDS011;53978;43.846;25.952;2022-10-16T12:31:59;8.65;;;5.75;;
67065;SDS011;53978;43.846;25.952;2022-10-16T12:42:39;8.35;;;5.32;;
67065;SDS011;53978;43.846;25.952;2022-10-16T12:47:51;8.32;;;5.63;;
67065;SDS011;53978;43.846;25.952;2022-10-16T12:50:37;7.15;;;5.35;;
67065;SDS011;53978;43.846;25.952;2022-10-16T12:53:18;9.75;;;6.50;;
67065;SDS011;53978;43.846;25.952;2022-10-16T13:01:36;8.00;;;5.60;;
67065;SDS011;53978;43.846;25.952;2022-10-16T13:04:22;8.52;;;5.68;;
67065;SDS011;53978;43.846;25.952;2022-10-16T13:06:53;11.80;;;5.43;;
67065;SDS011;53978;43.846;25.952;2022-10-16T13:09:30;13.10;;;5.68;;
67065;SDS011;53978;43.846;25.952;2022-10-16T13:14:51;8.07;;;5.85;;
67065;SDS011;53978;43.846;25.952;2022-10-16T13:17:30;7.22;;;5.15;;
67065;SDS011;53978;43.846;25.952;2022-10-16T13:22:55;17.13;;;5.18;;
67065;SDS011;53978;43.846;25.952;2022-10-16T13:30:35;7.32;;;5.03;;
67065;SDS011;53978;43.846;25.952;2022-10-16T13:33:04;7.28;;;4.75;;
67065;SDS011;53978;43.846;25.952;2022-10-16T13:35:34;10.50;;;4.93;;
67065;SDS011;53978;43.846;25.952;2022-10-16T13:38:19;8.80;;;5.22;;
67065;SDS011;53978;43.846;25.952;2022-10-16T13:40:53;6.90;;;4.78;;
67065;SDS011;53978;43.846;25.952;2022-10-16T13:44:12;5.88;;;4.40;;
67065;SDS011;53978;43.846;25.952;2022-10-16T13:46:30;8.65;;;4.70;;
67065;SDS011;53978;43.846;25.952;2022-10-16T13:49:10;9.20;;;4.60;;
67065;SDS011;53978;43.846;25.952;2022-10-16T13:51:38;8.93;;;4.45;;
67065;SDS011;53978;43.846;25.952;2022-10-16T13:54:03;5.75;;;4.35;;
67065;SDS011;53978;43.846;25.952;2022-10-16T13:56:30;7.00;;;4.35;;
67065;SDS011;53978;43.846;25.952;2022-10-16T13:59:04;9.77;;;4.65;;
67065;SDS011;53978;43.846;25.952;2022-10-16T14:04:10;7.22;;;4.28;;
67065;SDS011;53978;43.846;25.952;2022-10-16T14:06:40;7.45;;;4.20;;
67065;SDS011;53978;43.846;25.952;2022-10-16T14:11:32;5.85;;;4.22;;
67065;SDS011;53978;43.846;25.952;2022-10-16T14:13:59;8.30;;;4.35;;
67065;SDS011;53978;43.846;25.952;2022-10-16T14:16:25;7.10;;;4.28;;
67065;SDS011;53978;43.846;25.952;2022-10-16T14:19:01;9.23;;;4.38;;
67065;SDS011;53978;43.846;25.952;2022-10-16T14:21:31;6.30;;;3.97;;
67065;SDS011;53978;43.846;25.952;2022-10-16T14:23:57;6.15;;;3.90;;
67065;SDS011;53978;43.846;25.952;2022-10-16T14:26:23;5.45;;;3.63;;
67065;SDS011;53978;43.846;25.952;2022-10-16T14:29:01;5.53;;;4.10;;
67065;SDS011;53978;43.846;25.952;2022-10-16T14:31:33;5.82;;;4.45;;
67065;SDS011;53978;43.846;25.952;2022-10-16T14:34:01;5.93;;;3.58;;
67065;SDS011;53978;43.846;25.952;2022-10-16T14:36:27;7.28;;;4.15;;
67065;SDS011;53978;43.846;25.952;2022-10-16T14:41:25;6.65;;;3.65;;
67065;SDS011;53978;43.846;25.952;2022-10-16T14:43:54;10.45;;;5.70;;
67065;SDS011;53978;43.846;25.952;2022-10-16T14:46:22;11.32;;;4.22;;
67065;SDS011;53978;43.846;25.952;2022-10-16T14:48:57;6.70;;;3.60;;
67065;SDS011;53978;43.846;25.952;2022-10-16T14:51:25;4.20;;;3.22;;
67065;SDS011;53978;43.846;25.952;2022-10-16T14:53:51;5.60;;;3.67;;
67065;SDS011;53978;43.846;25.952;2022-10-16T14:56:20;5.50;;;3.60;;
67065;SDS011;53978;43.846;25.952;2022-10-16T14:58:47;5.25;;;3.50;;
67065;SDS011;53978;43.846;25.952;2022-10-16T15:01:13;4.35;;;3.80;;
67065;SDS011;53978;43.846;25.952;2022-10-16T15:03:38;7.78;;;3.50;;
67065;SDS011;53978;43.846;25.952;2022-10-16T15:06:08;8.40;;;3.40;;
67065;SDS011;53978;43.846;25.952;2022-10-16T15:08:35;4.22;;;3.15;;
67065;SDS011;53978;43.846;25.952;2022-10-16T15:11:03;5.20;;;3.60;;
67065;SDS011;53978;43.846;25.952;2022-10-16T15:13:29;8.77;;;3.70;;
67065;SDS011;53978;43.846;25.952;2022-10-16T15:15:54;6.28;;;3.20;;
67065;SDS011;53978;43.846;25.952;2022-10-16T15:18:20;7.30;;;3.70;;
67065;SDS011;53978;43.846;25.952;2022-10-16T15:20:49;7.88;;;3.70;;
67065;SDS011;53978;43.846;25.952;2022-10-16T15:23:16;8.93;;;3.90;;
67065;SDS011;53978;43.846;25.952;2022-10-16T15:25:46;7.85;;;3.80;;
67065;SDS011;53978;43.846;25.952;2022-10-16T15:28:14;7.47;;;3.95;;
67065;SDS011;53978;43.846;25.952;2022-10-16T15:30:40;6.32;;;3.92;;
67065;SDS011;53978;43.846;25.952;2022-10-16T15:33:10;5.75;;;3.60;;
67065;SDS011;53978;43.846;25.952;2022-10-16T15:35:38;13.35;;;3.95;;
67065;SDS011;53978;43.846;25.952;2022-10-16T15:38:03;6.30;;;4.13;;
67065;SDS011;53978;43.846;25.952;2022-10-16T15:40:29;10.95;;;4.32;;
67065;SDS011;53978;43.846;25.952;2022-10-16T15:42:54;9.20;;;4.80;;
67065;SDS011;53978;43.846;25.952;2022-10-16T15:45:20;17.77;;;5.22;;
67065;SDS011;53978;43.846;25.952;2022-10-16T15:47:45;11.20;;;6.53;;
67065;SDS011;53978;43.846;25.952;2022-10-16T15:50:11;9.85;;;6.18;;
67065;SDS011;53978;43.846;25.952;2022-10-16T15:52:38;13.43;;;6.25;;
67065;SDS011;53978;43.846;25.952;2022-10-16T15:55:04;15.70;;;6.53;;
67065;SDS011;53978;43.846;25.952;2022-10-16T15:57:33;12.48;;;7.05;;
67065;SDS011;53978;43.846;25.952;2022-10-16T15:59:58;8.15;;;5.65;;
67065;SDS011;53978;43.846;25.952;2022-10-16T16:02:24;10.65;;;5.88;;
67065;SDS011;53978;43.846;25.952;2022-10-16T16:04:49;11.95;;;6.55;;
67065;SDS011;53978;43.846;25.952;2022-10-16T16:07:15;9.70;;;5.85;;
67065;SDS011;53978;43.846;25.952;2022-10-16T16:09:40;14.68;;;6.97;;
67065;SDS011;53978;43.846;25.952;2022-10-16T16:12:06;17.67;;;6.78;;
67065;SDS011;53978;43.846;25.952;2022-10-16T16:14:31;15.30;;;6.30;;
67065;SDS011;53978;43.846;25.952;2022-10-16T16:16:57;14.75;;;6.68;;
67065;SDS011;53978;43.846;25.952;2022-10-16T16:19:23;14.38;;;7.13;;
67065;SDS011;53978;43.846;25.952;2022-10-16T16:21:49;12.55;;;7.25;;
67065;SDS011;53978;43.846;25.952;2022-10-16T16:24:14;12.68;;;7.35;;
67065;SDS011;53978;43.846;25.952;2022-10-16T16:26:40;20.23;;;7.60;;
67065;SDS011;53978;43.846;25.952;2022-10-16T16:29:08;15.65;;;7.80;;
67065;SDS011;53978;43.846;25.952;2022-10-16T16:31:37;13.70;;;7.40;;
67065;SDS011;53978;43.846;25.952;2022-10-16T16:34:06;11.38;;;6.75;;
67065;SDS011;53978;43.846;25.952;2022-10-16T16:36:32;19.67;;;6.88;;
67065;SDS011;53978;43.846;25.952;2022-10-16T16:38:58;17.13;;;7.35;;
67065;SDS011;53978;43.846;25.952;2022-10-16T16:41:24;17.92;;;7.90;;
67065;SDS011;53978;43.846;25.952;2022-10-16T16:43:54;22.30;;;9.57;;
67065;SDS011;53978;43.846;25.952;2022-10-16T16:46:19;18.70;;;10.68;;
67065;SDS011;53978;43.846;25.952;2022-10-16T16:48:47;23.85;;;10.05;;
67065;SDS011;53978;43.846;25.952;2022-10-16T16:51:15;21.65;;;9.98;;
67065;SDS011;53978;43.846;25.952;2022-10-16T16:53:43;17.85;;;10.15;;
67065;SDS011;53978;43.846;25.952;2022-10-16T16:56:10;21.05;;;9.50;;
67065;SDS011;53978;43.846;25.952;2022-10-16T16:58:35;22.10;;;9.82;;
67065;SDS011;53978;43.846;25.952;2022-10-16T17:01:01;20.48;;;9.48;;